Time;durP1;ratioP1;P1;durP2;ratioP2;P2;SDS_P1;SDS_P2;PMS_P1;PMS_P2;Temp;Humidity;BMP_temperature;BMP_pressure;BME280_temperature;BME280_humidity;BME280_pressure;Samples;Min_cycle;Max_cycle;Signal;HPM_P1;HPM_P2
2022/03/17 00:02:25;;;;;;;6.60;6.20;;;10.60;99.90;;;;;;5042720;28;20266;-63
2022/03/17 00:04:52;;;;;;;6.07;5.77;;;10.60;99.90;;;;;;5042614;28;20260;-63
2022/03/17 00:07:20;;;;;;;6.10;5.80;;;10.60;99.90;;;;;;5045362;28;20290;-63
2022/03/17 00:09:47;;;;;;;5.67;5.33;;;10.50;99.90;;;;;;5052853;28;20193;-62
2022/03/17 00:12:15;;;;;;;5.20;4.90;;;10.40;99.90;;;;;;5042398;28;20236;-63
2022/03/17 00:14:43;;;;;;;4.78;4.47;;;10.40;99.90;;;;;;5045464;28;20232;-62
2022/03/17 00:17:10;;;;;;;4.60;4.40;;;10.30;99.90;;;;;;5045085;28;20236;-61
2022/03/17 00:19:37;;;;;;;4.57;4.37;;;10.30;99.90;;;;;;5045874;28;20558;-61
2022/03/17 00:22:06;;;;;;;4.33;4.13;;;10.30;99.90;;;;;;5045862;28;20228;-61
2022/03/17 00:24:33;;;;;;;4.47;4.17;;;10.20;99.90;;;;;;5043579;28;20227;-61
2022/03/17 00:27:01;;;;;;;3.70;3.50;;;10.10;99.90;;;;;;5037704;28;20213;-62
2022/03/17 00:29:30;;;;;;;3.63;3.43;;;10.00;99.90;;;;;;5036726;28;20215;-62
2022/03/17 00:31:57;;;;;;;3.50;3.30;;;10.00;99.90;;;;;;5034988;28;20287;-61
2022/03/17 00:34:23;;;;;;;3.70;3.50;;;10.00;99.90;;;;;;5034336;28;20224;-63
2022/03/17 00:36:50;;;;;;;3.90;3.60;;;10.00;99.90;;;;;;5034203;28;20590;-62
2022/03/17 00:39:17;;;;;;;3.50;3.30;;;10.00;99.90;;;;;;5033916;28;20236;-61
2022/03/17 00:41:45;;;;;;;3.50;3.30;;;10.00;99.90;;;;;;5036849;28;20270;-61
2022/03/17 00:44:12;;;;;;;3.43;3.23;;;10.00;99.90;;;;;;5034353;28;20256;-61
2022/03/17 00:46:40;;;;;;;3.10;2.90;;;10.10;99.90;;;;;;5034018;28;20216;-62
2022/03/17 00:49:08;;;;;;;3.20;3.00;;;10.20;99.90;;;;;;5033660;28;20205;-61
2022/03/17 00:51:35;;;;;;;3.43;3.23;;;10.20;99.90;;;;;;5033001;28;20585;-62
2022/03/17 00:54:02;;;;;;;2.93;2.83;;;10.20;99.90;;;;;;5033454;28;20295;-62
2022/03/17 01:06:36;;;;;;;2.50;2.40;;;10.40;99.90;;;;;;5027889;23;20236;-63
2022/03/17 01:09:03;;;;;;;2.97;2.77;;;10.30;99.90;;;;;;4997316;28;20291;-65
2022/03/17 01:11:30;;;;;;;2.90;2.80;;;10.30;99.90;;;;;;4996323;28;20297;-65
2022/03/17 01:13:57;;;;;;;3.33;3.13;;;10.30;99.90;;;;;;5007269;28;20636;-65
2022/03/17 01:16:24;;;;;;;3.20;3.00;;;10.30;99.90;;;;;;5011129;28;20304;-65
2022/03/17 01:18:51;;;;;;;2.97;2.77;;;10.20;99.90;;;;;;5007657;28;20256;-64
2022/03/17 01:21:17;;;;;;;2.70;2.60;;;10.30;99.90;;;;;;5012885;28;20216;-66
2022/03/17 01:23:46;;;;;;;3.03;2.93;;;10.20;99.90;;;;;;5009789;28;20201;-64
2022/03/17 01:26:13;;;;;;;2.93;2.73;;;10.20;99.90;;;;;;5013048;28;20225;-64
2022/03/17 01:28:41;;;;;;;3.00;2.90;;;10.20;99.90;;;;;;5015705;28;20236;-65
2022/03/17 01:31:08;;;;;;;2.80;2.70;;;10.20;99.90;;;;;;5011253;28;21725;-63
2022/03/17 01:33:35;;;;;;;2.53;2.43;;;10.30;99.90;;;;;;5010833;28;20598;-65
2022/03/17 01:36:02;;;;;;;2.60;2.50;;;10.30;99.90;;;;;;5011809;28;20229;-65
2022/03/17 01:38:29;;;;;;;2.40;2.30;;;10.30;99.90;;;;;;5013294;28;20205;-64
2022/03/17 01:40:57;;;;;;;2.80;2.70;;;10.30;99.90;;;;;;5010908;28;20279;-64
2022/03/17 01:43:24;;;;;;;2.80;2.60;;;10.30;99.90;;;;;;5013189;28;20209;-65
2022/03/17 01:45:52;;;;;;;2.37;2.27;;;10.20;99.90;;;;;;5013107;28;20311;-63
2022/03/17 01:48:21;;;;;;;2.33;2.23;;;10.20;99.90;;;;;;5013041;28;20205;-65
2022/03/17 01:50:48;;;;;;;2.30;2.20;;;10.30;99.90;;;;;;5012597;28;20248;-64
2022/03/17 01:53:15;;;;;;;2.40;2.30;;;10.40;99.90;;;;;;5010480;28;20215;-65
2022/03/17 01:55:42;;;;;;;2.30;2.20;;;10.40;99.90;;;;;;5015486;28;20225;-65
2022/03/17 01:58:11;;;;;;;2.40;2.20;;;10.40;99.90;;;;;;5014788;28;20236;-65
2022/03/17 02:00:40;;;;;;;2.40;2.30;;;10.40;99.90;;;;;;5019030;28;20308;-65
2022/03/17 02:03:08;;;;;;;2.53;2.43;;;10.40;99.90;;;;;;5021780;28;20215;-65
2022/03/17 02:05:35;;;;;;;2.50;2.40;;;10.50;99.90;;;;;;5013810;28;20236;-64
2022/03/17 02:08:02;;;;;;;2.30;2.20;;;10.40;99.90;;;;;;5012552;28;20205;-64
2022/03/17 02:13:08;;;;;;;2.47;2.37;;;10.10;99.90;;;;;;5012718;28;20316;-65
2022/03/17 02:13:17;;;;;;;2.30;2.10;;;10.10;99.90;;;;;;5012119;28;20205;-65
2022/03/17 02:15:44;;;;;;;2.20;2.10;;;10.10;99.90;;;;;;5010949;28;20233;-64
2022/03/17 02:18:13;;;;;;;1.93;1.83;;;10.10;99.90;;;;;;5011847;28;20208;-63
2022/03/17 02:20:40;;;;;;;2.07;1.97;;;10.10;99.90;;;;;;5011974;28;22454;-65
2022/03/17 02:26:04;;;;;;;2.10;2.00;;;10.10;99.90;;;;;;4987687;28;20589;-63
2022/03/17 02:28:33;;;;;;;1.90;1.80;;;10.10;99.90;;;;;;5011563;28;20243;-64
2022/03/17 02:31:01;;;;;;;1.93;1.83;;;10.20;99.90;;;;;;5011601;28;20759;-63
2022/03/17 02:33:28;;;;;;;2.20;2.10;;;10.10;99.90;;;;;;5011870;28;20248;-64
2022/03/17 02:35:55;;;;;;;2.10;2.00;;;10.00;99.90;;;;;;5010285;28;20261;-63
2022/03/17 02:38:24;;;;;;;2.07;1.97;;;10.00;99.90;;;;;;5011588;28;20819;-64
2022/03/17 02:40:52;;;;;;;1.90;1.80;;;9.90;99.90;;;;;;5011028;28;20575;-64
2022/03/17 02:43:20;;;;;;;2.20;2.00;;;10.10;99.90;;;;;;5012089;28;20241;-65
2022/03/17 02:45:47;;;;;;;1.93;1.83;;;9.80;99.90;;;;;;5012351;28;20267;-65
2022/03/17 02:48:15;;;;;;;1.90;1.77;;;9.90;99.90;;;;;;5011180;28;20201;-64
2022/03/17 02:50:41;;;;;;;2.00;1.90;;;9.90;99.90;;;;;;5010912;28;20664;-64
2022/03/17 02:53:10;;;;;;;1.63;1.53;;;9.90;99.90;;;;;;5012230;28;20228;-65
2022/03/17 02:55:40;;;;;;;2.10;2.00;;;9.90;99.90;;;;;;5011855;28;20229;-64
2022/03/17 02:58:08;;;;;;;2.10;1.90;;;9.90;99.90;;;;;;5011936;28;20295;-65
2022/03/17 03:00:36;;;;;;;1.80;1.70;;;9.90;99.90;;;;;;5012487;28;20652;-66
2022/03/17 03:03:05;;;;;;;2.07;1.97;;;10.00;99.90;;;;;;5011450;28;20259;-63
2022/03/17 03:05:32;;;;;;;1.83;1.73;;;10.00;99.90;;;;;;5012048;28;20237;-65
2022/03/17 03:07:59;;;;;;;1.80;1.70;;;10.00;99.90;;;;;;5010946;28;20206;-65
2022/03/17 03:10:26;;;;;;;1.77;1.67;;;10.10;99.90;;;;;;5011227;28;20205;-63
2022/03/17 03:12:54;;;;;;;1.90;1.80;;;10.10;99.90;;;;;;5009799;28;20220;-63
2022/03/17 03:15:21;;;;;;;1.97;1.87;;;10.10;99.90;;;;;;5011808;28;20256;-64
2022/03/17 03:17:48;;;;;;;1.77;1.70;;;10.10;99.90;;;;;;5011252;28;20209;-65
2022/03/17 03:20:15;;;;;;;2.00;1.90;;;10.10;99.90;;;;;;5010794;28;20227;-66
2022/03/17 03:22:42;;;;;;;2.00;1.90;;;10.20;99.90;;;;;;5011654;28;20347;-63
2022/03/17 03:25:10;;;;;;;2.00;1.90;;;10.20;99.90;;;;;;5011462;28;20259;-66
2022/03/17 03:27:39;;;;;;;2.57;2.40;;;10.10;99.90;;;;;;5010676;28;20216;-63
2022/03/17 03:30:09;;;;;;;2.20;2.10;;;10.20;99.90;;;;;;5006247;28;20305;-65
2022/03/17 03:32:36;;;;;;;1.70;1.60;;;10.10;99.90;;;;;;5001165;28;20289;-65
2022/03/17 03:37:22;;;;;;;1.92;1.83;;;9.90;99.90;;;;;;5010342;28;20284;-65
2022/03/17 03:37:50;;;;;;;2.05;1.95;;;9.90;99.90;;;;;;5008845;28;20209;-64
2022/03/17 03:40:17;;;;;;;2.00;1.90;;;9.90;99.90;;;;;;5011876;28;20190;-65
2022/03/17 03:42:44;;;;;;;1.83;1.73;;;9.90;99.90;;;;;;5010373;28;20221;-63
2022/03/17 03:45:13;;;;;;;2.03;1.93;;;10.00;99.90;;;;;;5013903;28;20228;-64
2022/03/17 03:47:40;;;;;;;1.60;1.50;;;10.00;99.90;;;;;;5012893;28;20209;-65
2022/03/17 03:50:07;;;;;;;1.70;1.60;;;9.90;99.90;;;;;;5014079;28;20243;-64
2022/03/17 03:52:34;;;;;;;1.90;1.80;;;10.00;99.90;;;;;;5015001;28;20292;-65
2022/03/17 03:55:01;;;;;;;1.83;1.73;;;10.00;99.90;;;;;;5018321;28;20229;-65
2022/03/17 03:57:28;;;;;;;1.63;1.53;;;9.90;99.90;;;;;;5030757;28;20668;-65
2022/03/17 03:59:55;;;;;;;2.17;2.07;;;9.90;99.90;;;;;;5013178;28;20280;-65
2022/03/17 04:02:24;;;;;;;1.97;1.77;;;9.90;99.90;;;;;;5016678;28;20229;-65
2022/03/17 04:04:50;;;;;;;1.65;1.60;;;9.90;99.90;;;;;;5016115;28;20930;-64
2022/03/17 04:07:18;;;;;;;1.77;1.67;;;10.00;99.90;;;;;;5016030;28;20212;-64
2022/03/17 04:09:45;;;;;;;2.40;2.20;;;9.90;99.90;;;;;;5016271;28;20212;-64
2022/03/17 04:12:13;;;;;;;2.20;2.10;;;9.90;99.90;;;;;;5012884;28;20212;-65
2022/03/17 04:14:40;;;;;;;2.20;2.10;;;9.80;99.90;;;;;;5015299;28;20228;-66
2022/03/17 04:17:07;;;;;;;2.20;2.10;;;9.80;99.90;;;;;;5015140;28;20688;-64
2022/03/17 04:19:36;;;;;;;2.20;2.10;;;9.80;99.90;;;;;;5014154;28;20208;-63
2022/03/17 04:22:03;;;;;;;2.00;1.90;;;9.80;99.90;;;;;;5012358;28;20239;-65
2022/03/17 04:24:30;;;;;;;1.90;1.80;;;9.80;99.90;;;;;;5014337;28;20213;-64
2022/03/17 04:26:57;;;;;;;1.97;1.87;;;9.80;99.90;;;;;;5013430;28;20294;-64
2022/03/17 04:29:23;;;;;;;1.80;1.70;;;9.70;99.90;;;;;;5013343;28;20740;-65
2022/03/17 04:31:50;;;;;;;2.10;1.83;;;9.70;99.90;;;;;;5011857;28;20240;-66
2022/03/17 04:34:18;;;;;;;1.83;1.73;;;9.70;99.90;;;;;;5012257;28;20252;-65
2022/03/17 04:36:46;;;;;;;2.00;1.90;;;9.70;99.90;;;;;;5011524;28;20600;-64
2022/03/17 04:39:13;;;;;;;2.30;2.20;;;9.70;99.90;;;;;;5013465;28;20201;-65
2022/03/17 04:41:40;;;;;;;1.83;1.73;;;9.70;99.90;;;;;;5013434;28;20312;-66
2022/03/17 04:44:07;;;;;;;2.30;2.10;;;9.80;99.90;;;;;;5014360;28;20235;-66
2022/03/17 04:46:35;;;;;;;2.10;2.00;;;9.80;99.90;;;;;;5014237;28;20316;-64
2022/03/17 04:49:02;;;;;;;2.10;2.00;;;9.80;99.90;;;;;;5013419;28;20243;-63
2022/03/17 04:51:29;;;;;;;2.40;2.20;;;9.80;99.90;;;;;;5013792;28;20240;-65
2022/03/17 04:53:56;;;;;;;1.90;1.80;;;9.70;99.90;;;;;;5011626;28;20236;-65
2022/03/17 04:56:23;;;;;;;1.90;1.80;;;9.70;99.90;;;;;;5013085;28;20315;-66
2022/03/17 04:58:50;;;;;;;2.00;1.90;;;9.80;99.90;;;;;;5013253;28;20197;-66
2022/03/17 05:01:17;;;;;;;2.10;2.00;;;9.70;99.90;;;;;;5014028;28;20209;-65
2022/03/17 05:03:44;;;;;;;2.23;2.03;;;9.80;99.90;;;;;;5013646;28;20213;-65
2022/03/17 05:06:13;;;;;;;2.20;2.10;;;9.80;99.90;;;;;;5013656;28;20233;-64
2022/03/17 05:08:40;;;;;;;2.27;2.07;;;9.80;99.90;;;;;;5014816;28;20205;-63
2022/03/17 05:11:10;;;;;;;1.97;1.87;;;9.90;99.90;;;;;;5019537;28;20205;-63
2022/03/17 05:13:39;;;;;;;1.77;1.67;;;9.90;99.90;;;;;;5017225;28;20236;-65
2022/03/17 05:16:06;;;;;;;1.87;1.77;;;9.90;99.90;;;;;;5010102;28;20247;-63
2022/03/17 05:18:33;;;;;;;1.80;1.70;;;9.90;99.90;;;;;;5012003;28;20259;-65
2022/03/17 05:21:00;;;;;;;1.80;1.70;;;9.90;99.90;;;;;;5013187;28;20227;-63
2022/03/17 05:23:30;;;;;;;2.50;2.40;;;9.90;99.90;;;;;;5011870;28;20681;-64
2022/03/17 05:25:57;;;;;;;3.30;3.10;;;9.90;99.90;;;;;;5012076;28;20225;-62
2022/03/17 05:28:25;;;;;;;2.80;2.60;;;9.90;99.90;;;;;;5013172;28;20209;-64
2022/03/17 05:30:52;;;;;;;2.73;2.53;;;9.90;99.90;;;;;;5012739;28;20228;-66
2022/03/17 05:33:21;;;;;;;2.63;2.43;;;9.80;99.90;;;;;;5010513;28;20208;-65
2022/03/17 05:35:47;;;;;;;2.40;2.30;;;9.90;99.90;;;;;;5012599;28;20225;-64
2022/03/17 05:38:14;;;;;;;2.60;2.40;;;9.90;99.90;;;;;;5013646;28;20300;-64
2022/03/17 05:40:41;;;;;;;2.40;2.30;;;10.00;99.90;;;;;;5015309;28;20627;-64
2022/03/17 05:43:10;;;;;;;2.23;2.13;;;10.00;99.90;;;;;;5013825;28;20228;-64
2022/03/17 05:45:41;;;;;;;2.77;2.57;;;10.00;99.90;;;;;;5014092;28;20318;-64
2022/03/17 05:48:08;;;;;;;2.03;1.93;;;10.00;99.90;;;;;;5015142;28;20205;-64
2022/03/17 05:50:37;;;;;;;2.33;2.23;;;10.00;99.90;;;;;;5031776;28;20205;-65
2022/03/17 05:53:04;;;;;;;2.30;2.20;;;10.00;99.90;;;;;;5033491;28;20216;-64
2022/03/17 05:55:31;;;;;;;2.17;2.07;;;10.00;99.90;;;;;;5032959;28;20289;-66
2022/03/17 05:57:58;;;;;;;2.17;2.07;;;10.00;99.90;;;;;;5022608;28;20645;-67
2022/03/17 06:00:27;;;;;;;1.83;1.73;;;10.10;99.90;;;;;;5011768;28;20288;-65
2022/03/17 06:02:57;;;;;;;2.03;1.90;;;10.10;99.90;;;;;;5008161;28;20248;-68
2022/03/17 06:05:25;;;;;;;2.03;1.93;;;10.20;99.90;;;;;;5012060;28;20708;-67
2022/03/17 06:07:53;;;;;;;1.90;1.80;;;10.20;99.90;;;;;;5012415;28;20255;-66
2022/03/17 06:10:23;;;;;;;1.80;1.70;;;10.20;99.90;;;;;;5014426;28;20224;-67
2022/03/17 06:12:52;;;;;;;1.90;1.80;;;10.30;99.90;;;;;;5012603;28;20271;-66
2022/03/17 06:15:20;;;;;;;2.20;1.97;;;10.30;99.90;;;;;;5013864;28;20229;-66
2022/03/17 06:17:49;;;;;;;2.17;2.07;;;10.40;99.90;;;;;;5012895;28;20201;-66
2022/03/17 06:20:19;;;;;;;2.50;2.40;;;10.50;99.90;;;;;;5009073;28;20205;-67
2022/03/17 06:22:48;;;;;;;2.80;2.60;;;10.40;99.90;;;;;;5013762;28;20224;-67
2022/03/17 06:25:16;;;;;;;2.25;2.15;;;10.30;99.90;;;;;;5010870;28;20251;-66
2022/03/17 06:27:44;;;;;;;2.23;2.13;;;10.40;99.90;;;;;;5011703;28;20287;-66
2022/03/17 06:30:13;;;;;;;2.70;2.50;;;10.50;99.90;;;;;;5011339;28;20216;-67
2022/03/17 06:32:40;;;;;;;2.60;2.50;;;10.50;99.90;;;;;;5011702;28;20206;-66
2022/03/17 06:35:09;;;;;;;2.50;2.40;;;10.60;99.90;;;;;;5011709;28;20599;-68
2022/03/17 06:37:38;;;;;;;2.30;2.20;;;10.60;99.90;;;;;;5013143;28;20232;-67
2022/03/17 06:40:06;;;;;;;2.13;2.03;;;10.60;99.90;;;;;;5013844;28;20304;-66
2022/03/17 06:42:33;;;;;;;3.00;2.80;;;10.50;99.90;;;;;;5009924;28;20247;-67
2022/03/17 06:45:00;;;;;;;2.80;2.60;;;10.60;99.90;;;;;;5012251;28;20259;-66
2022/03/17 06:47:27;;;;;;;3.00;2.87;;;10.60;99.90;;;;;;5010576;28;20302;-67
2022/03/17 06:49:54;;;;;;;2.80;2.70;;;10.60;99.90;;;;;;5012863;28;20196;-67
2022/03/17 06:52:22;;;;;;;3.37;3.17;;;10.60;99.90;;;;;;5011311;28;20929;-67
2022/03/17 06:54:50;;;;;;;2.90;2.70;;;10.60;99.90;;;;;;5010141;28;20229;-66
2022/03/17 06:57:18;;;;;;;2.50;2.40;;;10.60;99.90;;;;;;5014229;28;20695;-67
2022/03/17 06:59:45;;;;;;;2.57;2.30;;;10.60;99.90;;;;;;5013868;28;20212;-67
2022/03/17 07:02:12;;;;;;;2.60;2.50;;;10.50;99.90;;;;;;5011619;28;20694;-65
2022/03/17 07:04:39;;;;;;;2.50;2.40;;;10.50;99.90;;;;;;5011340;28;20204;-66
2022/03/17 07:07:06;;;;;;;2.47;2.33;;;10.50;99.90;;;;;;5031830;23;20237;-61
2022/03/17 07:09:33;;;;;;;2.30;2.20;;;10.40;99.90;;;;;;5014586;28;20678;-61
2022/03/17 07:12:01;;;;;;;1.90;1.80;;;10.40;99.90;;;;;;5012513;28;20236;-61
2022/03/17 07:14:28;;;;;;;2.20;2.10;;;10.40;99.90;;;;;;5013056;28;20662;-61
2022/03/17 07:16:55;;;;;;;2.03;1.93;;;10.40;99.90;;;;;;5020190;28;20256;-63
2022/03/17 07:19:22;;;;;;;2.00;1.90;;;10.60;99.90;;;;;;5037060;28;20262;-62
2022/03/17 07:21:49;;;;;;;2.20;2.10;;;10.60;99.90;;;;;;5038079;28;20292;-61
2022/03/17 07:24:16;;;;;;;1.80;1.70;;;10.60;99.90;;;;;;5037298;28;20320;-61
2022/03/17 07:26:44;;;;;;;2.40;1.83;;;10.50;99.90;;;;;;5037811;28;20255;-62
2022/03/17 07:29:13;;;;;;;1.67;1.57;;;10.50;99.90;;;;;;5036624;28;20219;-62
2022/03/17 07:31:40;;;;;;;1.90;1.80;;;10.60;99.90;;;;;;5039455;28;20705;-61
2022/03/17 07:34:06;;;;;;;1.73;1.63;;;10.70;99.90;;;;;;5040334;28;20204;-62
2022/03/17 07:36:33;;;;;;;2.00;1.90;;;10.70;99.90;;;;;;5035891;28;20261;-61
2022/03/17 07:39:01;;;;;;;2.23;2.13;;;10.70;99.90;;;;;;5036320;28;20236;-60
2022/03/17 07:41:31;;;;;;;2.10;2.00;;;10.80;99.90;;;;;;5035252;28;20203;-61
2022/03/17 07:43:59;;;;;;;2.50;2.40;;;10.80;99.90;;;;;;5036579;28;20235;-61
2022/03/17 07:46:27;;;;;;;2.60;2.40;;;10.90;99.90;;;;;;5036871;28;20667;-61
2022/03/17 07:48:54;;;;;;;2.00;1.90;;;11.00;99.90;;;;;;5036691;28;20212;-61
2022/03/17 07:51:21;;;;;;;2.13;2.03;;;11.10;99.90;;;;;;5035726;28;20204;-60
2022/03/17 07:53:48;;;;;;;2.43;2.30;;;11.10;99.90;;;;;;5037305;28;20230;-62
2022/03/17 07:56:15;;;;;;;2.77;2.57;;;11.20;99.90;;;;;;5037252;28;20228;-60
2022/03/17 07:58:42;;;;;;;2.80;2.60;;;11.20;99.90;;;;;;5036259;28;20207;-60
2022/03/17 08:01:09;;;;;;;2.97;2.77;;;11.20;99.90;;;;;;5036315;28;20223;-60
2022/03/17 08:03:40;;;;;;;2.80;2.60;;;11.40;99.90;;;;;;5047732;28;20227;-61
2022/03/17 08:06:07;;;;;;;3.47;3.27;;;11.40;99.90;;;;;;5038785;28;20236;-61
2022/03/17 08:08:35;;;;;;;2.73;2.63;;;11.50;99.90;;;;;;5034998;28;20216;-61
2022/03/17 08:11:02;;;;;;;3.20;3.00;;;11.50;99.90;;;;;;5034718;28;20208;-63
2022/03/17 08:13:29;;;;;;;3.40;3.20;;;11.50;99.90;;;;;;5034309;28;20629;-61
2022/03/17 08:15:55;;;;;;;3.37;3.17;;;11.50;99.90;;;;;;5034410;28;20286;-61
2022/03/17 08:18:24;;;;;;;3.77;3.57;;;11.50;99.90;;;;;;5034026;28;20211;-63
2022/03/17 08:20:52;;;;;;;3.77;3.53;;;11.60;99.90;;;;;;5034094;28;20209;-62
2022/03/17 08:23:21;;;;;;;3.60;3.40;;;11.60;99.90;;;;;;5034126;28;20224;-63
2022/03/17 08:25:49;;;;;;;3.30;3.10;;;11.60;99.90;;;;;;5035583;28;20229;-60
2022/03/17 08:28:18;;;;;;;3.70;3.50;;;11.60;99.90;;;;;;5035268;28;20258;-60
2022/03/17 08:30:46;;;;;;;3.80;3.60;;;11.60;99.90;;;;;;5034012;28;20299;-61
2022/03/17 08:33:14;;;;;;;3.70;3.50;;;11.60;99.90;;;;;;5034516;28;20200;-61
2022/03/17 08:35:41;;;;;;;3.47;3.27;;;11.50;99.90;;;;;;5034552;28;20575;-60
2022/03/17 08:38:10;;;;;;;3.50;3.30;;;11.50;99.90;;;;;;5033572;28;20204;-60
2022/03/17 08:40:38;;;;;;;4.30;4.00;;;11.50;99.90;;;;;;5033985;28;20268;-60
2022/03/17 08:43:06;;;;;;;4.27;4.07;;;11.60;99.90;;;;;;5033752;28;20220;-62
2022/03/17 08:51:02;;;;;;;4.67;4.37;;;11.40;99.90;;;;;;5026276;28;20220;-61
2022/03/17 08:53:30;;;;;;;4.73;4.40;;;11.50;99.90;;;;;;5032038;28;20738;-62
2022/03/17 08:55:58;;;;;;;4.47;4.17;;;11.50;99.90;;;;;;5033520;28;20684;-62
2022/03/17 08:58:25;;;;;;;4.60;4.30;;;11.50;99.90;;;;;;5024628;28;20208;-61
2022/03/17 09:00:52;;;;;;;4.53;4.23;;;11.50;99.90;;;;;;5024133;28;20574;-60
2022/03/17 09:03:19;;;;;;;5.20;4.80;;;11.50;99.90;;;;;;5026855;28;20675;-60
2022/03/17 09:05:46;;;;;;;4.43;4.13;;;11.50;99.90;;;;;;5028671;28;20225;-60
2022/03/17 09:08:13;;;;;;;4.90;4.60;;;11.60;99.90;;;;;;5023216;28;20224;-60
2022/03/17 09:10:41;;;;;;;4.50;4.30;;;11.60;99.90;;;;;;5024620;28;20291;-60
2022/03/17 09:13:09;;;;;;;4.57;4.27;;;11.60;99.90;;;;;;5021994;28;20280;-60
2022/03/17 09:15:42;;;;;;;4.25;4.00;;;11.70;99.90;;;;;;5021533;28;20694;-61
2022/03/17 09:18:10;;;;;;;4.63;4.33;;;11.70;99.90;;;;;;5025424;28;20204;-60
2022/03/17 09:20:37;;;;;;;4.13;3.90;;;11.70;99.90;;;;;;5028685;28;20208;-62
2022/03/17 09:23:04;;;;;;;5.40;5.00;;;11.70;99.90;;;;;;5019374;28;20221;-62
2022/03/17 09:25:33;;;;;;;5.10;4.80;;;11.70;99.90;;;;;;5033089;28;20193;-60
2022/03/17 09:28:02;;;;;;;4.17;3.97;;;11.60;99.90;;;;;;5033634;28;20200;-61
2022/03/17 09:30:29;;;;;;;4.80;4.50;;;11.50;99.90;;;;;;5038415;28;20259;-62
2022/03/17 09:32:58;;;;;;;5.33;4.93;;;11.60;99.90;;;;;;5036412;28;20201;-61
2022/03/17 09:35:26;;;;;;;5.30;5.00;;;11.60;99.90;;;;;;5036400;28;20211;-61
2022/03/17 09:37:53;;;;;;;4.90;4.60;;;11.70;99.90;;;;;;5033865;28;20236;-62
2022/03/17 09:40:20;;;;;;;4.70;4.50;;;11.70;99.90;;;;;;5032358;28;20200;-61
2022/03/17 09:42:47;;;;;;;4.32;4.13;;;11.80;99.90;;;;;;5031581;28;20563;-61
2022/03/17 09:45:16;;;;;;;4.67;4.37;;;11.80;99.90;;;;;;5032487;28;20258;-62
2022/03/17 09:47:45;;;;;;;5.37;4.97;;;11.80;99.90;;;;;;5032674;28;20311;-61
2022/03/17 09:50:16;;;;;;;4.93;4.63;;;11.80;99.90;;;;;;5031886;28;20948;-60
2022/03/17 09:52:47;;;;;;;4.90;4.60;;;11.80;99.90;;;;;;5030569;28;20189;-61
2022/03/17 09:55:13;;;;;;;5.10;4.80;;;11.90;99.90;;;;;;5032427;28;20207;-61
2022/03/17 09:57:42;;;;;;;4.70;4.40;;;12.00;99.90;;;;;;5032879;28;20225;-60
2022/03/17 10:00:12;;;;;;;4.90;4.60;;;12.00;99.90;;;;;;5035132;28;20239;-61
2022/03/17 10:02:41;;;;;;;4.67;4.37;;;12.10;99.90;;;;;;5031591;28;20316;-61
2022/03/17 10:05:11;;;;;;;4.83;4.53;;;12.20;99.90;;;;;;5038555;28;20201;-61
2022/03/17 10:07:39;;;;;;;5.00;4.70;;;12.20;99.90;;;;;;5039244;28;20259;-62
2022/03/17 10:10:07;;;;;;;4.50;4.30;;;12.20;99.90;;;;;;5034742;28;20204;-61
2022/03/17 10:12:34;;;;;;;5.00;4.70;;;12.20;99.90;;;;;;5027311;28;20197;-61
2022/03/17 10:15:02;;;;;;;4.60;4.40;;;12.40;99.90;;;;;;5027896;28;20631;-61
2022/03/17 10:17:34;;;;;;;5.57;4.93;;;12.50;99.90;;;;;;5033203;28;20221;-62
2022/03/17 10:20:18;;;;;;;4.57;4.27;;;12.50;99.90;;;;;;5032838;28;20205;-59
2022/03/17 10:22:46;;;;;;;4.67;4.37;;;12.60;99.90;;;;;;5030276;28;20568;-61
2022/03/17 10:25:15;;;;;;;4.77;4.53;;;12.70;99.90;;;;;;5032236;28;20228;-62
2022/03/17 10:27:45;;;;;;;5.23;4.90;;;12.80;99.90;;;;;;5032160;28;20221;-59
2022/03/17 10:30:14;;;;;;;4.77;4.47;;;12.80;99.90;;;;;;5032646;28;20243;-61
2022/03/17 10:32:53;;;;;;;5.22;4.93;;;12.80;99.90;;;;;;5032040;28;20193;-60
2022/03/17 10:35:26;;;;;;;4.33;4.13;;;12.80;99.90;;;;;;5032389;28;20230;-60
2022/03/17 10:37:53;;;;;;;4.90;4.63;;;12.90;99.90;;;;;;5033254;28;20292;-60
2022/03/17 10:40:28;;;;;;;4.47;4.27;;;12.90;99.90;;;;;;5032656;28;20247;-60
2022/03/17 10:43:14;;;;;;;4.63;4.33;;;13.00;99.90;;;;;;5032432;28;20192;-61
2022/03/17 10:45:41;;;;;;;4.27;4.07;;;13.00;99.90;;;;;;5033024;28;20243;-61
2022/03/17 10:48:08;;;;;;;4.73;4.37;;;13.10;99.90;;;;;;5032604;28;20641;-61
2022/03/17 10:50:40;;;;;;;4.80;4.40;;;13.10;99.90;;;;;;5032027;28;20676;-60
2022/03/17 10:53:08;;;;;;;4.97;4.63;;;13.00;99.90;;;;;;5032276;28;20247;-61
2022/03/17 10:55:36;;;;;;;5.00;4.70;;;13.10;99.90;;;;;;5037380;28;20288;-61
2022/03/17 10:58:14;;;;;;;4.70;4.40;;;13.10;99.90;;;;;;5037817;28;20237;-61
2022/03/17 11:00:48;;;;;;;4.97;4.67;;;13.20;99.90;;;;;;5037935;28;20208;-63
2022/03/17 11:03:16;;;;;;;5.40;5.10;;;13.20;99.90;;;;;;5036298;28;20204;-63
2022/03/17 11:05:45;;;;;;;4.63;4.43;;;13.20;99.90;;;;;;5032382;28;20209;-62
2022/03/17 11:08:14;;;;;;;5.47;5.10;;;13.20;99.90;;;;;;5032154;28;20291;-62
2022/03/17 11:10:41;;;;;;;5.00;4.80;;;13.20;99.90;;;;;;5031566;28;20221;-62
2022/03/17 11:13:11;;;;;;;5.50;5.20;;;13.20;99.90;;;;;;5031629;28;20213;-61
2022/03/17 11:15:40;;;;;;;6.03;5.70;;;13.20;99.90;;;;;;5031588;28;20278;-62
2022/03/17 11:18:11;;;;;;;5.33;5.03;;;13.20;99.90;;;;;;5031459;28;20635;-63
2022/03/17 11:20:38;;;;;;;5.60;5.30;;;13.30;99.90;;;;;;5031670;28;20442;-61
2022/03/17 11:23:19;;;;;;;6.13;5.83;;;13.20;99.90;;;;;;5032926;28;20252;-62
2022/03/17 11:25:56;;;;;;;6.10;5.77;;;13.30;99.90;;;;;;5033120;28;20240;-62
2022/03/17 11:28:34;;;;;;;6.67;6.37;;;13.30;99.90;;;;;;5032980;28;20276;-62
2022/03/17 11:31:02;;;;;;;6.47;6.07;;;13.20;99.90;;;;;;5032419;28;20193;-62
2022/03/17 11:33:32;;;;;;;6.27;5.97;;;13.20;99.90;;;;;;5032826;28;20252;-62
2022/03/17 11:36:01;;;;;;;6.20;5.90;;;13.30;99.90;;;;;;5035967;28;20240;-62
2022/03/17 11:38:32;;;;;;;6.60;6.20;;;13.30;99.90;;;;;;5023369;28;20205;-63
2022/03/17 11:41:08;;;;;;;6.83;6.43;;;13.30;99.90;;;;;;5032404;28;20201;-63
2022/03/17 11:44:01;;;;;;;6.50;6.20;;;13.10;99.90;;;;;;5035283;28;20216;-64
2022/03/17 11:46:41;;;;;;;6.53;6.13;;;13.00;99.90;;;;;;5034136;28;20233;-63
2022/03/17 11:49:20;;;;;;;6.67;6.30;;;13.10;99.90;;;;;;5033603;28;20192;-62
2022/03/17 11:51:58;;;;;;;7.23;6.83;;;13.10;99.90;;;;;;5031978;28;20204;-62
2022/03/17 11:54:28;;;;;;;7.00;6.60;;;13.10;99.90;;;;;;5034063;28;20227;-63
2022/03/17 11:56:56;;;;;;;6.47;6.17;;;13.10;99.90;;;;;;5034250;28;20255;-65
2022/03/17 11:59:27;;;;;;;6.43;6.13;;;13.20;99.90;;;;;;5032356;28;20698;-65
2022/03/17 12:01:56;;;;;;;6.50;6.17;;;13.20;99.90;;;;;;5031153;28;20617;-63
2022/03/17 12:04:28;;;;;;;7.10;6.70;;;13.20;99.90;;;;;;5034838;28;20251;-64
2022/03/17 12:06:56;;;;;;;7.07;6.57;;;13.10;99.90;;;;;;5035731;28;20313;-64
2022/03/17 12:09:32;;;;;;;6.93;6.53;;;13.20;99.90;;;;;;5035837;28;20208;-63
2022/03/17 12:11:59;;;;;;;7.17;6.77;;;13.20;99.90;;;;;;5035829;28;20282;-65
2022/03/17 12:14:28;;;;;;;6.80;6.40;;;13.10;99.90;;;;;;5037938;28;20200;-63
2022/03/17 12:16:56;;;;;;;6.87;6.47;;;13.10;99.90;;;;;;5039078;28;20224;-63
2022/03/17 12:19:31;;;;;;;7.37;6.87;;;13.10;99.90;;;;;;5039333;28;20244;-63
2022/03/17 12:22:15;;;;;;;6.87;6.47;;;13.20;99.90;;;;;;5038872;28;20240;-63
2022/03/17 12:24:47;;;;;;;7.07;6.67;;;13.10;99.90;;;;;;5038682;28;20279;-62
2022/03/17 12:27:17;;;;;;;6.47;6.13;;;13.20;99.90;;;;;;5041926;28;20255;-63
2022/03/17 12:29:45;;;;;;;6.67;6.30;;;13.20;99.90;;;;;;5037379;28;20216;-63
2022/03/17 12:32:14;;;;;;;6.27;5.87;;;13.20;99.90;;;;;;5037661;28;20200;-64
2022/03/17 12:34:44;;;;;;;6.30;5.97;;;13.30;99.90;;;;;;5038240;28;20232;-65
2022/03/17 12:37:12;;;;;;;6.57;6.20;;;13.40;99.90;;;;;;5037066;28;20220;-65
2022/03/17 12:39:40;;;;;;;6.10;5.80;;;13.50;99.90;;;;;;5035451;28;20233;-62
2022/03/17 12:42:16;;;;;;;6.67;6.27;;;13.40;99.90;;;;;;5034846;28;20672;-64
2022/03/17 12:44:51;;;;;;;6.73;6.33;;;13.40;99.90;;;;;;5033629;28;20546;-65
2022/03/17 12:47:19;;;;;;;6.33;5.97;;;13.40;99.90;;;;;;5035664;28;20228;-64
2022/03/17 12:49:46;;;;;;;5.77;5.47;;;13.40;99.90;;;;;;5034776;28;20211;-63
2022/03/17 12:52:14;;;;;;;5.70;5.40;;;13.50;99.90;;;;;;5034469;28;20204;-64
2022/03/17 12:54:41;;;;;;;5.73;5.43;;;13.60;99.90;;;;;;5035433;28;20205;-63
2022/03/17 12:57:08;;;;;;;5.67;5.37;;;13.70;99.90;;;;;;5033818;28;20811;-63
2022/03/17 12:59:36;;;;;;;6.20;5.80;;;13.80;99.90;;;;;;5034802;28;20291;-62
2022/03/17 13:02:06;;;;;;;6.80;6.40;;;14.00;99.90;;;;;;5034187;28;20247;-63
2022/03/17 13:04:35;;;;;;;6.20;5.90;;;14.00;99.90;;;;;;5036927;28;20216;-64
2022/03/17 13:07:06;;;;;;;6.10;5.80;;;13.90;99.90;;;;;;5048561;23;20707;-65
2022/03/17 13:09:34;;;;;;;6.20;5.80;;;13.90;99.90;;;;;;4996503;28;20234;-66
2022/03/17 13:14:52;;;;;;;6.20;5.77;;;13.80;99.90;;;;;;4984050;28;20194;-65
2022/03/17 13:17:36;;;;;;;6.73;6.33;;;13.60;99.90;;;;;;4984630;28;20261;-66